Anson, Texas
Current Conditions -  °F | °C
As of 5:58 PM on Sunday 23 Nov 2014 (Local Time) from KDYS Reporting Station
Clear Clear  
Wind Chill: 59°   Ceiling: Unl
Heat Index: 59°   Visibility: 10mi
Dew Point: 35°   Wind: 20mph
Humidity: 41%   Direction: 360°N
Pressure: 29.69"   Gusts: 30mph
Location:  32.76°N, 99.9°W
Report Text: KDYS 232358Z AUTO 36017G26KT 340V040 10SM CLR 15/02 A2969 RMK AO2 PK WND 35031/28 PRESRR SLP040 T01500019 10234 20150 52051 $
Loading
Personal Weather Stations






























Interactive Weather Map New forecast layout! Learn more

10-Day Weather Forecast

Advertisements
Track Severe Weather on mobile